sensor_id;sensor_type;location;lat;lon;timestamp;P1;durP1;ratioP1;P2;durP2;ratioP2
37001;SDS011;22913;51.910;8.374;2022-12-10T00:02:19;36.53;;;26.30;;
37001;SDS011;22913;51.910;8.374;2022-12-10T00:05:04;36.87;;;25.47;;
37001;SDS011;22913;51.910;8.374;2022-12-10T00:07:52;36.37;;;25.67;;
37001;SDS011;22913;51.910;8.374;2022-12-10T00:10:38;35.43;;;25.90;;
37001;SDS011;22913;51.910;8.374;2022-12-10T00:13:24;38.77;;;26.67;;
37001;SDS011;22913;51.910;8.374;2022-12-10T00:16:11;36.77;;;26.20;;
37001;SDS011;22913;51.910;8.374;2022-12-10T00:18:59;33.70;;;26.37;;
37001;SDS011;22913;51.910;8.374;2022-12-10T00:21:45;37.70;;;25.83;;
37001;SDS011;22913;51.910;8.374;2022-12-10T00:24:31;35.83;;;25.40;;
37001;SDS011;22913;51.910;8.374;2022-12-10T00:27:16;32.77;;;23.87;;
37001;SDS011;22913;51.910;8.374;2022-12-10T00:30:02;32.57;;;25.43;;
37001;SDS011;22913;51.910;8.374;2022-12-10T00:32:47;32.27;;;24.97;;
37001;SDS011;22913;51.910;8.374;2022-12-10T00:35:37;39.00;;;26.00;;
37001;SDS011;22913;51.910;8.374;2022-12-10T00:38:23;30.60;;;23.43;;
37001;SDS011;22913;51.910;8.374;2022-12-10T00:41:08;31.93;;;24.53;;
37001;SDS011;22913;51.910;8.374;2022-12-10T00:43:55;32.70;;;24.57;;
37001;SDS011;22913;51.910;8.374;2022-12-10T00:46:40;35.67;;;24.80;;
37001;SDS011;22913;51.910;8.374;2022-12-10T00:49:26;31.77;;;25.23;;
37001;SDS011;22913;51.910;8.374;2022-12-10T00:52:13;31.83;;;24.90;;
37001;SDS011;22913;51.910;8.374;2022-12-10T00:54:59;31.53;;;23.90;;
37001;SDS011;22913;51.910;8.374;2022-12-10T00:57:44;35.03;;;26.00;;
37001;SDS011;22913;51.910;8.374;2022-12-10T01:00:30;34.27;;;25.27;;
37001;SDS011;22913;51.910;8.374;2022-12-10T01:03:15;32.27;;;24.50;;
37001;SDS011;22913;51.910;8.374;2022-12-10T01:06:07;36.53;;;25.40;;
37001;SDS011;22913;51.910;8.374;2022-12-10T01:08:59;37.17;;;25.67;;
37001;SDS011;22913;51.910;8.374;2022-12-10T01:11:47;34.37;;;26.33;;
37001;SDS011;22913;51.910;8.374;2022-12-10T01:14:33;34.27;;;25.77;;
37001;SDS011;22913;51.910;8.374;2022-12-10T01:17:19;31.80;;;24.40;;
37001;SDS011;22913;51.910;8.374;2022-12-10T01:20:05;35.07;;;26.23;;
37001;SDS011;22913;51.910;8.374;2022-12-10T01:22:51;34.83;;;24.50;;
37001;SDS011;22913;51.910;8.374;2022-12-10T01:25:38;36.83;;;26.57;;
37001;SDS011;22913;51.910;8.374;2022-12-10T01:28:23;35.57;;;26.17;;
37001;SDS011;22913;51.910;8.374;2022-12-10T01:31:09;33.13;;;26.50;;
37001;SDS011;22913;51.910;8.374;2022-12-10T01:33:58;41.07;;;26.30;;
37001;SDS011;22913;51.910;8.374;2022-12-10T01:36:44;32.43;;;25.07;;
37001;SDS011;22913;51.910;8.374;2022-12-10T01:39:33;35.20;;;26.50;;
37001;SDS011;22913;51.910;8.374;2022-12-10T01:42:20;33.47;;;25.73;;
37001;SDS011;22913;51.910;8.374;2022-12-10T01:45:07;33.67;;;25.20;;
37001;SDS011;22913;51.910;8.374;2022-12-10T01:47:55;34.83;;;25.50;;
37001;SDS011;22913;51.910;8.374;2022-12-10T01:50:41;33.30;;;24.57;;
37001;SDS011;22913;51.910;8.374;2022-12-10T01:53:26;32.67;;;24.90;;
37001;SDS011;22913;51.910;8.374;2022-12-10T01:56:12;35.33;;;25.73;;
37001;SDS011;22913;51.910;8.374;2022-12-10T01:59:00;35.23;;;27.30;;
37001;SDS011;22913;51.910;8.374;2022-12-10T02:01:48;37.80;;;28.63;;
37001;SDS011;22913;51.910;8.374;2022-12-10T02:04:45;35.17;;;29.13;;
37001;SDS011;22913;51.910;8.374;2022-12-10T02:07:42;38.23;;;28.20;;
37001;SDS011;22913;51.910;8.374;2022-12-10T02:10:43;36.43;;;29.40;;
37001;SDS011;22913;51.910;8.374;2022-12-10T02:13:41;38.13;;;30.17;;
37001;SDS011;22913;51.910;8.374;2022-12-10T02:16:34;40.43;;;30.33;;
37001;SDS011;22913;51.910;8.374;2022-12-10T02:19:26;39.60;;;29.47;;
37001;SDS011;22913;51.910;8.374;2022-12-10T02:22:24;39.83;;;30.60;;
37001;SDS011;22913;51.910;8.374;2022-12-10T02:25:13;38.70;;;29.70;;
37001;SDS011;22913;51.910;8.374;2022-12-10T02:28:03;37.93;;;28.27;;
37001;SDS011;22913;51.910;8.374;2022-12-10T02:30:56;40.97;;;28.87;;
37001;SDS011;22913;51.910;8.374;2022-12-10T02:33:46;39.73;;;27.90;;
37001;SDS011;22913;51.910;8.374;2022-12-10T02:36:37;38.40;;;28.23;;
37001;SDS011;22913;51.910;8.374;2022-12-10T02:39:24;35.03;;;27.83;;
37001;SDS011;22913;51.910;8.374;2022-12-10T02:42:13;38.30;;;27.73;;
37001;SDS011;22913;51.910;8.374;2022-12-10T02:45:00;35.07;;;26.80;;
37001;SDS011;22913;51.910;8.374;2022-12-10T02:47:49;39.53;;;28.83;;
37001;SDS011;22913;51.910;8.374;2022-12-10T02:50:35;35.47;;;27.33;;
37001;SDS011;22913;51.910;8.374;2022-12-10T02:53:20;35.67;;;26.27;;
37001;SDS011;22913;51.910;8.374;2022-12-10T02:56:08;37.37;;;26.53;;
37001;SDS011;22913;51.910;8.374;2022-12-10T02:59:01;33.07;;;26.77;;
37001;SDS011;22913;51.910;8.374;2022-12-10T03:01:55;36.67;;;26.57;;
37001;SDS011;22913;51.910;8.374;2022-12-10T03:04:52;31.43;;;24.73;;
37001;SDS011;22913;51.910;8.374;2022-12-10T03:07:45;31.87;;;24.80;;
37001;SDS011;22913;51.910;8.374;2022-12-10T03:10:35;33.97;;;23.97;;
37001;SDS011;22913;51.910;8.374;2022-12-10T03:13:28;31.93;;;23.47;;
37001;SDS011;22913;51.910;8.374;2022-12-10T03:16:16;34.53;;;25.13;;
37001;SDS011;22913;51.910;8.374;2022-12-10T03:19:05;29.30;;;23.20;;
37001;SDS011;22913;51.910;8.374;2022-12-10T03:21:56;31.23;;;24.50;;
37001;SDS011;22913;51.910;8.374;2022-12-10T03:24:42;29.70;;;23.57;;
37001;SDS011;22913;51.910;8.374;2022-12-10T03:27:28;30.93;;;23.27;;
37001;SDS011;22913;51.910;8.374;2022-12-10T03:30:14;31.10;;;23.53;;
37001;SDS011;22913;51.910;8.374;2022-12-10T03:33:00;31.70;;;23.53;;
37001;SDS011;22913;51.910;8.374;2022-12-10T03:35:46;30.10;;;23.30;;
37001;SDS011;22913;51.910;8.374;2022-12-10T03:38:33;30.27;;;23.30;;
37001;SDS011;22913;51.910;8.374;2022-12-10T03:41:20;31.07;;;24.40;;
37001;SDS011;22913;51.910;8.374;2022-12-10T03:44:06;32.63;;;23.20;;
37001;SDS011;22913;51.910;8.374;2022-12-10T03:46:52;33.23;;;23.27;;
37001;SDS011;22913;51.910;8.374;2022-12-10T03:49:37;30.37;;;23.90;;
37001;SDS011;22913;51.910;8.374;2022-12-10T03:52:23;30.83;;;23.37;;
37001;SDS011;22913;51.910;8.374;2022-12-10T03:55:10;31.50;;;23.20;;
37001;SDS011;22913;51.910;8.374;2022-12-10T03:57:55;29.20;;;22.17;;
37001;SDS011;22913;51.910;8.374;2022-12-10T04:00:41;29.53;;;22.40;;
37001;SDS011;22913;51.910;8.374;2022-12-10T04:03:26;29.67;;;21.57;;
37001;SDS011;22913;51.910;8.374;2022-12-10T04:06:13;34.80;;;23.13;;
37001;SDS011;22913;51.910;8.374;2022-12-10T04:09:00;28.90;;;23.13;;
37001;SDS011;22913;51.910;8.374;2022-12-10T04:11:47;30.63;;;22.60;;
37001;SDS011;22913;51.910;8.374;2022-12-10T04:14:32;31.07;;;24.60;;
37001;SDS011;22913;51.910;8.374;2022-12-10T04:17:36;34.60;;;23.77;;
37001;SDS011;22913;51.910;8.374;2022-12-10T04:20:22;31.80;;;25.03;;
37001;SDS011;22913;51.910;8.374;2022-12-10T04:23:40;31.50;;;25.47;;
37001;SDS011;22913;51.910;8.374;2022-12-10T04:26:43;33.97;;;25.10;;
37001;SDS011;22913;51.910;8.374;2022-12-10T04:29:40;33.27;;;25.60;;
37001;SDS011;22913;51.910;8.374;2022-12-10T04:32:26;34.50;;;26.67;;
37001;SDS011;22913;51.910;8.374;2022-12-10T04:35:14;31.33;;;25.17;;
37001;SDS011;22913;51.910;8.374;2022-12-10T04:38:00;35.37;;;26.93;;
37001;SDS011;22913;51.910;8.374;2022-12-10T04:40:45;36.33;;;26.93;;
37001;SDS011;22913;51.910;8.374;2022-12-10T04:43:31;33.63;;;25.67;;
37001;SDS011;22913;51.910;8.374;2022-12-10T04:46:18;33.67;;;26.07;;
37001;SDS011;22913;51.910;8.374;2022-12-10T04:49:03;33.17;;;25.37;;
37001;SDS011;22913;51.910;8.374;2022-12-10T04:51:50;31.33;;;25.27;;
37001;SDS011;22913;51.910;8.374;2022-12-10T04:54:36;31.67;;;24.60;;
37001;SDS011;22913;51.910;8.374;2022-12-10T04:57:21;34.07;;;25.57;;
37001;SDS011;22913;51.910;8.374;2022-12-10T05:00:08;34.20;;;25.90;;
37001;SDS011;22913;51.910;8.374;2022-12-10T05:02:55;31.87;;;25.30;;
37001;SDS011;22913;51.910;8.374;2022-12-10T05:05:41;30.50;;;24.70;;
37001;SDS011;22913;51.910;8.374;2022-12-10T05:08:26;30.50;;;23.63;;
37001;SDS011;22913;51.910;8.374;2022-12-10T05:11:13;29.97;;;23.33;;
37001;SDS011;22913;51.910;8.374;2022-12-10T05:14:00;30.27;;;24.73;;
37001;SDS011;22913;51.910;8.374;2022-12-10T05:16:45;30.40;;;24.80;;
37001;SDS011;22913;51.910;8.374;2022-12-10T05:19:35;30.50;;;23.90;;
37001;SDS011;22913;51.910;8.374;2022-12-10T05:22:21;34.27;;;24.63;;
37001;SDS011;22913;51.910;8.374;2022-12-10T05:25:24;31.67;;;25.03;;
37001;SDS011;22913;51.910;8.374;2022-12-10T05:28:10;29.03;;;23.47;;
37001;SDS011;22913;51.910;8.374;2022-12-10T05:30:56;28.97;;;23.90;;
37001;SDS011;22913;51.910;8.374;2022-12-10T05:33:42;28.47;;;23.27;;
37001;SDS011;22913;51.910;8.374;2022-12-10T05:36:29;31.87;;;24.63;;
37001;SDS011;22913;51.910;8.374;2022-12-10T05:39:15;30.47;;;23.30;;
37001;SDS011;22913;51.910;8.374;2022-12-10T05:42:01;28.67;;;23.57;;
37001;SDS011;22913;51.910;8.374;2022-12-10T05:44:46;27.87;;;23.87;;
37001;SDS011;22913;51.910;8.374;2022-12-10T05:47:32;28.77;;;23.67;;
37001;SDS011;22913;51.910;8.374;2022-12-10T05:50:18;30.93;;;23.50;;
37001;SDS011;22913;51.910;8.374;2022-12-10T05:53:04;29.40;;;23.10;;
37001;SDS011;22913;51.910;8.374;2022-12-10T05:55:50;30.03;;;23.37;;
37001;SDS011;22913;51.910;8.374;2022-12-10T05:58:45;30.93;;;23.17;;
37001;SDS011;22913;51.910;8.374;2022-12-10T06:01:33;28.30;;;21.43;;
37001;SDS011;22913;51.910;8.374;2022-12-10T06:04:19;27.73;;;21.97;;
37001;SDS011;22913;51.910;8.374;2022-12-10T06:07:05;29.63;;;23.20;;
37001;SDS011;22913;51.910;8.374;2022-12-10T06:09:52;29.30;;;23.03;;
37001;SDS011;22913;51.910;8.374;2022-12-10T06:12:37;28.13;;;21.93;;
37001;SDS011;22913;51.910;8.374;2022-12-10T06:15:22;30.00;;;23.17;;
37001;SDS011;22913;51.910;8.374;2022-12-10T06:18:08;25.27;;;22.07;;
37001;SDS011;22913;51.910;8.374;2022-12-10T06:20:54;27.07;;;22.60;;
37001;SDS011;22913;51.910;8.374;2022-12-10T06:23:39;26.30;;;22.47;;
37001;SDS011;22913;51.910;8.374;2022-12-10T06:26:26;30.17;;;23.33;;
37001;SDS011;22913;51.910;8.374;2022-12-10T06:29:12;26.40;;;22.80;;
37001;SDS011;22913;51.910;8.374;2022-12-10T06:31:57;27.80;;;22.57;;
37001;SDS011;22913;51.910;8.374;2022-12-10T06:34:43;26.17;;;21.90;;
37001;SDS011;22913;51.910;8.374;2022-12-10T06:37:29;27.87;;;22.60;;
37001;SDS011;22913;51.910;8.374;2022-12-10T06:40:14;25.40;;;21.63;;
37001;SDS011;22913;51.910;8.374;2022-12-10T06:43:02;25.50;;;21.23;;
37001;SDS011;22913;51.910;8.374;2022-12-10T06:45:47;28.33;;;21.03;;
37001;SDS011;22913;51.910;8.374;2022-12-10T06:48:33;26.73;;;21.70;;
37001;SDS011;22913;51.910;8.374;2022-12-10T06:51:19;28.00;;;22.10;;
37001;SDS011;22913;51.910;8.374;2022-12-10T06:54:04;25.83;;;20.87;;
37001;SDS011;22913;51.910;8.374;2022-12-10T06:56:50;28.83;;;22.43;;
37001;SDS011;22913;51.910;8.374;2022-12-10T06:59:37;24.67;;;17.90;;
37001;SDS011;22913;51.910;8.374;2022-12-10T07:02:22;28.33;;;22.33;;
37001;SDS011;22913;51.910;8.374;2022-12-10T07:05:08;28.83;;;21.93;;
37001;SDS011;22913;51.910;8.374;2022-12-10T07:07:54;27.10;;;21.80;;
37001;SDS011;22913;51.910;8.374;2022-12-10T07:10:39;24.53;;;20.60;;
37001;SDS011;22913;51.910;8.374;2022-12-10T07:13:25;26.00;;;21.10;;
37001;SDS011;22913;51.910;8.374;2022-12-10T07:16:15;24.27;;;21.17;;
37001;SDS011;22913;51.910;8.374;2022-12-10T07:19:02;29.70;;;22.53;;
37001;SDS011;22913;51.910;8.374;2022-12-10T07:21:48;26.77;;;21.17;;
37001;SDS011;22913;51.910;8.374;2022-12-10T07:24:35;24.17;;;20.60;;
37001;SDS011;22913;51.910;8.374;2022-12-10T07:27:20;27.17;;;21.20;;
37001;SDS011;22913;51.910;8.374;2022-12-10T07:30:06;27.33;;;21.53;;
37001;SDS011;22913;51.910;8.374;2022-12-10T07:32:54;26.83;;;20.73;;
37001;SDS011;22913;51.910;8.374;2022-12-10T07:35:40;25.00;;;20.13;;
37001;SDS011;22913;51.910;8.374;2022-12-10T07:38:25;26.83;;;22.50;;
37001;SDS011;22913;51.910;8.374;2022-12-10T07:41:11;25.37;;;20.83;;
37001;SDS011;22913;51.910;8.374;2022-12-10T07:43:57;27.40;;;22.07;;
37001;SDS011;22913;51.910;8.374;2022-12-10T07:46:43;28.03;;;21.57;;
37001;SDS011;22913;51.910;8.374;2022-12-10T07:49:30;27.27;;;21.47;;
37001;SDS011;22913;51.910;8.374;2022-12-10T07:52:15;28.70;;;22.90;;
37001;SDS011;22913;51.910;8.374;2022-12-10T07:55:01;25.77;;;22.03;;
37001;SDS011;22913;51.910;8.374;2022-12-10T07:57:47;28.77;;;22.67;;
37001;SDS011;22913;51.910;8.374;2022-12-10T08:00:32;25.20;;;21.50;;
37001;SDS011;22913;51.910;8.374;2022-12-10T08:03:18;26.50;;;21.03;;
37001;SDS011;22913;51.910;8.374;2022-12-10T08:06:06;28.00;;;22.17;;
37001;SDS011;22913;51.910;8.374;2022-12-10T08:08:52;27.30;;;21.50;;
37001;SDS011;22913;51.910;8.374;2022-12-10T08:11:38;27.67;;;21.83;;
37001;SDS011;22913;51.910;8.374;2022-12-10T08:14:23;26.07;;;20.90;;
37001;SDS011;22913;51.910;8.374;2022-12-10T08:17:09;24.87;;;21.10;;
37001;SDS011;22913;51.910;8.374;2022-12-10T08:19:54;26.33;;;21.77;;
37001;SDS011;22913;51.910;8.374;2022-12-10T08:22:41;30.27;;;23.37;;
37001;SDS011;22913;51.910;8.374;2022-12-10T08:25:27;24.13;;;19.83;;
37001;SDS011;22913;51.910;8.374;2022-12-10T08:28:12;28.83;;;23.10;;
37001;SDS011;22913;51.910;8.374;2022-12-10T08:30:58;26.40;;;21.33;;
37001;SDS011;22913;51.910;8.374;2022-12-10T08:33:44;27.80;;;22.60;;
37001;SDS011;22913;51.910;8.374;2022-12-10T08:36:29;27.50;;;20.73;;
37001;SDS011;22913;51.910;8.374;2022-12-10T08:39:16;22.63;;;19.60;;
37001;SDS011;22913;51.910;8.374;2022-12-10T08:42:02;27.00;;;20.67;;
37001;SDS011;22913;51.910;8.374;2022-12-10T08:44:47;25.30;;;20.00;;
37001;SDS011;22913;51.910;8.374;2022-12-10T08:47:34;29.70;;;21.63;;
37001;SDS011;22913;51.910;8.374;2022-12-10T08:50:20;24.20;;;20.10;;
37001;SDS011;22913;51.910;8.374;2022-12-10T08:53:06;24.00;;;20.10;;
37001;SDS011;22913;51.910;8.374;2022-12-10T08:55:53;28.60;;;20.10;;
37001;SDS011;22913;51.910;8.374;2022-12-10T08:58:39;25.23;;;20.10;;
37001;SDS011;22913;51.910;8.374;2022-12-10T09:01:24;26.67;;;22.27;;
37001;SDS011;22913;51.910;8.374;2022-12-10T09:04:10;25.57;;;20.47;;
37001;SDS011;22913;51.910;8.374;2022-12-10T09:06:56;28.30;;;20.97;;
37001;SDS011;22913;51.910;8.374;2022-12-10T09:09:41;28.60;;;21.00;;
37001;SDS011;22913;51.910;8.374;2022-12-10T09:12:29;24.67;;;20.50;;
37001;SDS011;22913;51.910;8.374;2022-12-10T09:15:14;24.83;;;20.20;;
37001;SDS011;22913;51.910;8.374;2022-12-10T09:18:00;26.37;;;20.77;;
37001;SDS011;22913;51.910;8.374;2022-12-10T09:20:45;26.30;;;20.00;;
37001;SDS011;22913;51.910;8.374;2022-12-10T09:23:31;26.03;;;21.63;;
37001;SDS011;22913;51.910;8.374;2022-12-10T09:26:17;23.83;;;20.80;;
37001;SDS011;22913;51.910;8.374;2022-12-10T09:29:05;23.07;;;19.80;;
37001;SDS011;22913;51.910;8.374;2022-12-10T09:31:51;27.67;;;21.50;;
37001;SDS011;22913;51.910;8.374;2022-12-10T09:34:37;26.20;;;20.77;;
37001;SDS011;22913;51.910;8.374;2022-12-10T09:37:23;25.27;;;21.00;;
37001;SDS011;22913;51.910;8.374;2022-12-10T09:40:09;23.87;;;19.57;;
37001;SDS011;22913;51.910;8.374;2022-12-10T09:42:59;25.33;;;20.57;;
37001;SDS011;22913;51.910;8.374;2022-12-10T09:45:52;26.33;;;19.73;;
37001;SDS011;22913;51.910;8.374;2022-12-10T09:48:47;26.27;;;19.47;;
37001;SDS011;22913;51.910;8.374;2022-12-10T09:51:42;29.10;;;20.50;;
37001;SDS011;22913;51.910;8.374;2022-12-10T09:54:29;24.03;;;19.63;;
37001;SDS011;22913;51.910;8.374;2022-12-10T09:57:19;25.90;;;19.90;;
37001;SDS011;22913;51.910;8.374;2022-12-10T10:00:15;23.33;;;20.43;;
37001;SDS011;22913;51.910;8.374;2022-12-10T10:03:05;26.67;;;21.17;;
37001;SDS011;22913;51.910;8.374;2022-12-10T10:05:52;23.70;;;19.63;;
37001;SDS011;22913;51.910;8.374;2022-12-10T10:08:39;24.27;;;20.30;;
37001;SDS011;22913;51.910;8.374;2022-12-10T10:11:28;24.83;;;19.33;;
37001;SDS011;22913;51.910;8.374;2022-12-10T10:14:17;22.17;;;19.40;;
37001;SDS011;22913;51.910;8.374;2022-12-10T10:17:08;23.23;;;19.30;;
37001;SDS011;22913;51.910;8.374;2022-12-10T10:20:00;26.83;;;19.80;;
37001;SDS011;22913;51.910;8.374;2022-12-10T10:22:45;25.17;;;21.00;;
37001;SDS011;22913;51.910;8.374;2022-12-10T10:25:31;24.30;;;18.63;;
37001;SDS011;22913;51.910;8.374;2022-12-10T10:28:18;25.77;;;19.07;;
37001;SDS011;22913;51.910;8.374;2022-12-10T10:31:07;22.57;;;18.13;;
37001;SDS011;22913;51.910;8.374;2022-12-10T10:34:02;26.90;;;18.27;;
37001;SDS011;22913;51.910;8.374;2022-12-10T10:36:52;22.70;;;19.00;;
37001;SDS011;22913;51.910;8.374;2022-12-10T10:39:42;21.00;;;18.37;;
37001;SDS011;22913;51.910;8.374;2022-12-10T10:42:34;22.77;;;18.13;;
37001;SDS011;22913;51.910;8.374;2022-12-10T10:45:31;21.97;;;18.93;;
37001;SDS011;22913;51.910;8.374;2022-12-10T10:48:20;22.17;;;16.93;;
37001;SDS011;22913;51.910;8.374;2022-12-10T10:51:08;19.00;;;17.00;;
37001;SDS011;22913;51.910;8.374;2022-12-10T10:54:01;21.67;;;18.00;;
37001;SDS011;22913;51.910;8.374;2022-12-10T10:56:47;21.53;;;18.33;;
37001;SDS011;22913;51.910;8.374;2022-12-10T10:59:33;24.27;;;18.30;;
37001;SDS011;22913;51.910;8.374;2022-12-10T11:02:22;20.03;;;17.37;;
37001;SDS011;22913;51.910;8.374;2022-12-10T11:05:15;20.87;;;17.07;;
37001;SDS011;22913;51.910;8.374;2022-12-10T11:08:05;19.43;;;16.90;;
37001;SDS011;22913;51.910;8.374;2022-12-10T11:11:01;18.10;;;16.17;;
37001;SDS011;22913;51.910;8.374;2022-12-10T11:13:48;18.90;;;16.43;;
37001;SDS011;22913;51.910;8.374;2022-12-10T11:16:34;21.73;;;16.33;;
37001;SDS011;22913;51.910;8.374;2022-12-10T11:19:20;18.07;;;16.17;;
37001;SDS011;22913;51.910;8.374;2022-12-10T11:22:14;18.43;;;16.03;;
37001;SDS011;22913;51.910;8.374;2022-12-10T11:25:01;18.20;;;16.27;;
37001;SDS011;22913;51.910;8.374;2022-12-10T11:27:52;20.53;;;16.60;;
37001;SDS011;22913;51.910;8.374;2022-12-10T11:30:47;17.07;;;15.20;;
37001;SDS011;22913;51.910;8.374;2022-12-10T11:33:40;17.87;;;14.93;;
37001;SDS011;22913;51.910;8.374;2022-12-10T11:36:33;18.27;;;14.53;;
37001;SDS011;22913;51.910;8.374;2022-12-10T11:39:28;17.00;;;14.67;;
37001;SDS011;22913;51.910;8.374;2022-12-10T11:42:34;15.23;;;13.43;;
37001;SDS011;22913;51.910;8.374;2022-12-10T11:45:30;15.27;;;12.43;;
37001;SDS011;22913;51.910;8.374;2022-12-10T11:48:28;15.03;;;13.43;;
37001;SDS011;22913;51.910;8.374;2022-12-10T11:51:19;15.37;;;13.57;;
37001;SDS011;22913;51.910;8.374;2022-12-10T11:54:19;13.80;;;12.30;;
37001;SDS011;22913;51.910;8.374;2022-12-10T11:57:17;15.27;;;13.67;;
37001;SDS011;22913;51.910;8.374;2022-12-10T12:00:15;13.13;;;11.83;;
37001;SDS011;22913;51.910;8.374;2022-12-10T12:03:17;16.97;;;12.87;;
37001;SDS011;22913;51.910;8.374;2022-12-10T12:06:22;16.73;;;13.17;;
37001;SDS011;22913;51.910;8.374;2022-12-10T12:09:22;13.70;;;11.83;;
37001;SDS011;22913;51.910;8.374;2022-12-10T12:12:22;15.10;;;12.10;;
37001;SDS011;22913;51.910;8.374;2022-12-10T12:15:21;14.00;;;12.43;;
37001;SDS011;22913;51.910;8.374;2022-12-10T12:18:12;12.00;;;10.80;;
37001;SDS011;22913;51.910;8.374;2022-12-10T12:21:03;11.27;;;9.77;;
37001;SDS011;22913;51.910;8.374;2022-12-10T12:23:53;12.57;;;11.27;;
37001;SDS011;22913;51.910;8.374;2022-12-10T12:26:44;11.53;;;10.27;;
37001;SDS011;22913;51.910;8.374;2022-12-10T12:29:34;11.30;;;10.10;;
37001;SDS011;22913;51.910;8.374;2022-12-10T12:32:27;12.37;;;10.93;;
37001;SDS011;22913;51.910;8.374;2022-12-10T12:35:19;13.03;;;11.63;;
37001;SDS011;22913;51.910;8.374;2022-12-10T12:38:16;13.00;;;11.40;;
37001;SDS011;22913;51.910;8.374;2022-12-10T12:41:10;13.70;;;12.03;;
37001;SDS011;22913;51.910;8.374;2022-12-10T12:44:03;12.60;;;11.30;;
37001;SDS011;22913;51.910;8.374;2022-12-10T12:46:54;13.17;;;11.77;;
37001;SDS011;22913;51.910;8.374;2022-12-10T12:49:42;12.87;;;11.60;;
37001;SDS011;22913;51.910;8.374;2022-12-10T12:52:32;13.27;;;11.87;;
37001;SDS011;22913;51.910;8.374;2022-12-10T12:55:25;13.47;;;12.17;;
37001;SDS011;22913;51.910;8.374;2022-12-10T12:58:20;12.80;;;11.47;;
37001;SDS011;22913;51.910;8.374;2022-12-10T13:01:19;13.63;;;11.30;;
37001;SDS011;22913;51.910;8.374;2022-12-10T13:04:26;12.30;;;11.10;;
37001;SDS011;22913;51.910;8.374;2022-12-10T13:07:32;12.77;;;11.33;;
37001;SDS011;22913;51.910;8.374;2022-12-10T13:10:23;13.43;;;11.97;;
37001;SDS011;22913;51.910;8.374;2022-12-10T13:13:17;12.37;;;11.03;;
37001;SDS011;22913;51.910;8.374;2022-12-10T13:19:27;16.63;;;11.93;;
37001;SDS011;22913;51.910;8.374;2022-12-10T13:22:40;11.97;;;10.77;;
37001;SDS011;22913;51.910;8.374;2022-12-10T13:25:40;12.87;;;11.43;;
37001;SDS011;22913;51.910;8.374;2022-12-10T13:28:41;13.90;;;11.87;;
37001;SDS011;22913;51.910;8.374;2022-12-10T13:31:35;13.93;;;12.43;;
37001;SDS011;22913;51.910;8.374;2022-12-10T13:34:23;15.47;;;11.47;;
37001;SDS011;22913;51.910;8.374;2022-12-10T13:37:26;14.10;;;9.17;;
37001;SDS011;22913;51.910;8.374;2022-12-10T13:40:21;14.03;;;11.73;;
37001;SDS011;22913;51.910;8.374;2022-12-10T13:43:20;13.10;;;11.80;;
37001;SDS011;22913;51.910;8.374;2022-12-10T13:46:30;14.10;;;12.60;;
37001;SDS011;22913;51.910;8.374;2022-12-10T13:49:17;14.27;;;12.20;;
37001;SDS011;22913;51.910;8.374;2022-12-10T13:52:05;14.23;;;12.80;;
37001;SDS011;22913;51.910;8.374;2022-12-10T13:54:58;14.90;;;13.13;;
37001;SDS011;22913;51.910;8.374;2022-12-10T13:58:18;15.13;;;13.17;;
37001;SDS011;22913;51.910;8.374;2022-12-10T14:01:12;15.57;;;12.27;;
37001;SDS011;22913;51.910;8.374;2022-12-10T14:04:07;16.67;;;12.43;;
37001;SDS011;22913;51.910;8.374;2022-12-10T14:07:07;15.97;;;13.33;;
37001;SDS011;22913;51.910;8.374;2022-12-10T14:09:56;15.87;;;12.97;;
37001;SDS011;22913;51.910;8.374;2022-12-10T14:12:43;14.17;;;12.53;;
37001;SDS011;22913;51.910;8.374;2022-12-10T14:15:31;16.40;;;12.87;;
37001;SDS011;22913;51.910;8.374;2022-12-10T14:18:22;17.30;;;13.77;;
37001;SDS011;22913;51.910;8.374;2022-12-10T14:21:08;16.57;;;12.33;;
37001;SDS011;22913;51.910;8.374;2022-12-10T14:23:57;14.80;;;13.17;;
37001;SDS011;22913;51.910;8.374;2022-12-10T14:26:42;15.43;;;13.53;;
37001;SDS011;22913;51.910;8.374;2022-12-10T14:29:28;16.33;;;13.80;;
37001;SDS011;22913;51.910;8.374;2022-12-10T14:32:15;15.27;;;12.53;;
37001;SDS011;22913;51.910;8.374;2022-12-10T14:35:04;20.60;;;13.77;;
37001;SDS011;22913;51.910;8.374;2022-12-10T14:37:52;15.33;;;12.47;;
37001;SDS011;22913;51.910;8.374;2022-12-10T14:40:41;18.00;;;14.33;;
37001;SDS011;22913;51.910;8.374;2022-12-10T14:43:29;16.13;;;14.43;;
37001;SDS011;22913;51.910;8.374;2022-12-10T14:46:20;16.87;;;13.60;;
37001;SDS011;22913;51.910;8.374;2022-12-10T14:49:11;15.00;;;13.40;;
37001;SDS011;22913;51.910;8.374;2022-12-10T14:52:01;15.33;;;13.73;;
37001;SDS011;22913;51.910;8.374;2022-12-10T14:54:46;15.00;;;13.40;;
37001;SDS011;22913;51.910;8.374;2022-12-10T14:57:33;15.70;;;14.00;;
37001;SDS011;22913;51.910;8.374;2022-12-10T15:00:23;15.90;;;14.20;;
37001;SDS011;22913;51.910;8.374;2022-12-10T15:03:09;15.87;;;13.70;;
37001;SDS011;22913;51.910;8.374;2022-12-10T15:05:59;14.93;;;13.33;;
37001;SDS011;22913;51.910;8.374;2022-12-10T15:08:47;15.50;;;13.90;;
37001;SDS011;22913;51.910;8.374;2022-12-10T15:11:33;16.27;;;14.53;;
37001;SDS011;22913;51.910;8.374;2022-12-10T15:14:19;14.67;;;13.17;;
37001;SDS011;22913;51.910;8.374;2022-12-10T15:20:23;17.60;;;14.27;;
37001;SDS011;22913;51.910;8.374;2022-12-10T15:23:17;17.10;;;14.43;;
37001;SDS011;22913;51.910;8.374;2022-12-10T15:26:08;16.73;;;14.90;;
37001;SDS011;22913;51.910;8.374;2022-12-10T15:29:14;16.97;;;14.37;;
37001;SDS011;22913;51.910;8.374;2022-12-10T15:32:14;15.60;;;13.40;;
37001;SDS011;22913;51.910;8.374;2022-12-10T15:35:04;17.00;;;14.13;;
37001;SDS011;22913;51.910;8.374;2022-12-10T15:37:56;17.97;;;15.17;;
37001;SDS011;22913;51.910;8.374;2022-12-10T15:40:45;17.60;;;14.03;;
37001;SDS011;22913;51.910;8.374;2022-12-10T15:43:31;17.97;;;14.97;;
37001;SDS011;22913;51.910;8.374;2022-12-10T15:46:17;15.47;;;13.77;;
37001;SDS011;22913;51.910;8.374;2022-12-10T15:49:03;17.53;;;14.10;;
37001;SDS011;22913;51.910;8.374;2022-12-10T15:51:48;17.10;;;13.93;;
37001;SDS011;22913;51.910;8.374;2022-12-10T15:54:35;22.23;;;14.13;;
37001;SDS011;22913;51.910;8.374;2022-12-10T15:57:25;17.60;;;14.50;;
37001;SDS011;22913;51.910;8.374;2022-12-10T16:00:14;20.13;;;15.83;;
37001;SDS011;22913;51.910;8.374;2022-12-10T16:03:03;17.73;;;14.57;;
37001;SDS011;22913;51.910;8.374;2022-12-10T16:05:50;17.57;;;14.67;;
37001;SDS011;22913;51.910;8.374;2022-12-10T16:08:35;19.17;;;15.07;;
37001;SDS011;22913;51.910;8.374;2022-12-10T16:11:21;15.57;;;13.83;;
37001;SDS011;22913;51.910;8.374;2022-12-10T16:14:09;18.73;;;14.83;;
37001;SDS011;22913;51.910;8.374;2022-12-10T16:16:56;18.37;;;14.60;;
37001;SDS011;22913;51.910;8.374;2022-12-10T16:19:42;17.00;;;14.53;;
37001;SDS011;22913;51.910;8.374;2022-12-10T16:22:28;15.67;;;13.93;;
37001;SDS011;22913;51.910;8.374;2022-12-10T16:25:13;17.50;;;14.33;;
37001;SDS011;22913;51.910;8.374;2022-12-10T16:27:59;17.87;;;14.63;;
37001;SDS011;22913;51.910;8.374;2022-12-10T16:30:48;18.73;;;15.37;;
37001;SDS011;22913;51.910;8.374;2022-12-10T16:33:34;16.73;;;14.60;;
37001;SDS011;22913;51.910;8.374;2022-12-10T16:36:20;18.73;;;14.93;;